Time;durP1;ratioP1;P1;durP2;ratioP2;P2;SDS_P1;SDS_P2;PMS_P1;PMS_P2;Temp;Humidity;BMP_temperature;BMP_pressure;BME280_temperature;BME280_humidity;BME280_pressure;Samples;Min_cycle;Max_cycle;Signal;HPM_P1;HPM_P2
2021/01/08 00:02:06;;;;;;;;;35.00;30.33;;;;;;;;5038128;28;8834;-83
2021/01/08 00:04:33;;;;;;;;;29.67;27.67;;;;;;;;5037181;28;8873;-81
2021/01/08 00:07:00;;;;;;;;;36.33;31.00;;;;;;;;5033643;28;8876;-86
2021/01/08 00:09:27;;;;;;;;;32.67;28.33;;;;;;;;5038453;28;9653;-78
2021/01/08 00:11:55;;;;;;;;;37.67;37.00;;;;;;;;5040948;28;8987;-78
2021/01/08 00:14:22;;;;;;;;;27.33;18.67;;;;;;;;5033172;28;8921;-79
2021/01/08 00:16:49;;;;;;;;;28.67;28.67;;;;;;;;5025209;28;8846;-76
2021/01/08 00:19:17;;;;;;;;;31.67;31.67;;;;;;;;5027452;28;8886;-76
2021/01/08 00:21:44;;;;;;;;;30.67;28.00;;;;;;;;5034288;28;8879;-83
2021/01/08 00:24:13;;;;;;;;;22.67;21.33;;;;;;;;5033891;28;8972;-80
2021/01/08 00:26:41;;;;;;;;;31.00;25.00;;;;;;;;5036251;28;8870;-79
2021/01/08 00:29:09;;;;;;;;;30.00;27.00;;;;;;;;5033567;28;8931;-78
2021/01/08 00:31:37;;;;;;;;;33.67;33.67;;;;;;;;5029620;28;8805;-79
2021/01/08 00:34:05;;;;;;;;;38.00;36.67;;;;;;;;5040361;28;8876;-82
2021/01/08 00:36:33;;;;;;;;;31.67;30.67;;;;;;;;5038004;28;8867;-84
2021/01/08 00:39:00;;;;;;;;;42.33;36.67;;;;;;;;5035962;28;8858;-80
2021/01/08 00:41:31;;;;;;;;;23.67;23.67;;;;;;;;5030116;28;8895;-80
2021/01/08 00:43:58;;;;;;;;;33.00;33.00;;;;;;;;5034299;28;9005;-84
2021/01/08 00:46:35;;;;;;;;;31.67;31.67;;;;;;;;5038725;28;9009;-84
2021/01/08 00:49:02;;;;;;;;;42.67;41.33;;;;;;;;5027665;28;9666;-77
2021/01/08 00:51:29;;;;;;;;;31.67;31.67;;;;;;;;5030200;28;9616;-80
2021/01/08 00:53:57;;;;;;;;;34.33;34.33;;;;;;;;5033449;28;8902;-86
2021/01/08 00:56:24;;;;;;;;;36.67;36.67;;;;;;;;5040495;28;8940;-83
2021/01/08 00:58:51;;;;;;;;;32.33;32.33;;;;;;;;5034281;28;8866;-78
2021/01/08 01:01:18;;;;;;;;;42.00;40.00;;;;;;;;5032752;28;8818;-83
2021/01/08 01:03:45;;;;;;;;;40.00;40.00;;;;;;;;5037503;28;9575;-81
2021/01/08 01:06:12;;;;;;;;;40.67;38.33;;;;;;;;5032784;28;8874;-81
2021/01/08 01:08:39;;;;;;;;;30.67;30.67;;;;;;;;5041001;28;8885;-80
2021/01/08 01:11:07;;;;;;;;;31.67;31.67;;;;;;;;5031776;28;8867;-81
2021/01/08 01:13:34;;;;;;;;;33.67;33.67;;;;;;;;5033609;28;8891;-77
2021/01/08 01:16:01;;;;;;;;;28.33;28.33;;;;;;;;5034806;28;8838;-85
2021/01/08 01:18:27;;;;;;;;;33.33;31.00;;;;;;;;5041393;28;8867;-79
2021/01/08 01:20:54;;;;;;;;;42.33;41.00;;;;;;;;5034748;28;8862;-83
2021/01/08 01:23:21;;;;;;;;;39.00;39.00;;;;;;;;5039430;28;8866;-78
2021/01/08 01:25:48;;;;;;;;;31.33;30.00;;;;;;;;5039300;28;8871;-83
2021/01/08 01:28:16;;;;;;;;;40.00;37.67;;;;;;;;5035067;28;8855;-81
2021/01/08 01:30:43;;;;;;;;;42.33;33.67;;;;;;;;5041920;28;8830;-84
2021/01/08 01:33:09;;;;;;;;;47.33;37.67;;;;;;;;5039869;28;8879;-83
2021/01/08 01:35:36;;;;;;;;;39.00;36.00;;;;;;;;5040910;28;8873;-84
2021/01/08 01:38:03;;;;;;;;;39.00;33.67;;;;;;;;5032693;28;8951;-83
2021/01/08 01:40:30;;;;;;;;;39.00;36.67;;;;;;;;5035071;28;11593;-83
2021/01/08 01:42:57;;;;;;;;;33.33;31.00;;;;;;;;5036889;28;8885;-82
2021/01/08 01:45:25;;;;;;;;;37.33;33.33;;;;;;;;5041813;28;11607;-81
2021/01/08 01:47:52;;;;;;;;;37.33;34.33;;;;;;;;5039442;28;11595;-81
2021/01/08 01:50:19;;;;;;;;;32.33;29.67;;;;;;;;5036492;28;11599;-81
2021/01/08 01:52:46;;;;;;;;;26.33;22.33;;;;;;;;5030252;28;11578;-79
2021/01/08 01:55:14;;;;;;;;;42.33;33.00;;;;;;;;5039923;28;11627;-85
2021/01/08 01:57:42;;;;;;;;;37.33;32.33;;;;;;;;5031539;28;11545;-82
2021/01/08 02:00:10;;;;;;;;;26.00;26.00;;;;;;;;5033651;28;11585;-87
2021/01/08 02:02:41;;;;;;;;;35.00;30.00;;;;;;;;5048355;28;11681;-77
2021/01/08 02:05:10;;;;;;;;;28.00;26.00;;;;;;;;5029749;28;11589;-83
2021/01/08 02:07:42;;;;;;;;;30.67;26.33;;;;;;;;5040790;28;11618;-77
2021/01/08 02:10:10;;;;;;;;;27.33;25.00;;;;;;;;5035977;28;11565;-81
2021/01/08 02:12:37;;;;;;;;;25.00;22.00;;;;;;;;5037252;28;11563;-78
2021/01/08 02:15:05;;;;;;;;;26.33;21.33;;;;;;;;5042853;28;12319;-77
2021/01/08 02:17:33;;;;;;;;;28.00;25.33;;;;;;;;5032494;28;11702;-81
2021/01/08 02:20:05;;;;;;;;;27.00;22.00;;;;;;;;5042864;28;11587;-78
2021/01/08 02:22:36;;;;;;;;;28.00;28.00;;;;;;;;5041668;28;11586;-81
2021/01/08 02:25:13;;;;;;;;;25.00;25.00;;;;;;;;5035384;28;12481;-78
2021/01/08 02:27:46;;;;;;;;;29.67;27.33;;;;;;;;5034459;28;12357;-81
2021/01/08 02:30:14;;;;;;;;;26.67;23.33;;;;;;;;5035172;28;11660;-78
2021/01/08 02:32:40;;;;;;;;;24.25;24.25;;;;;;;;5051066;28;11552;-81
2021/01/08 02:35:09;;;;;;;;;31.33;31.33;;;;;;;;5038197;28;11622;-80
2021/01/08 02:37:43;;;;;;;;;26.00;25.00;;;;;;;;5046588;28;11709;-84
2021/01/08 02:40:14;;;;;;;;;32.67;28.00;;;;;;;;5044870;28;11549;-79
2021/01/08 02:42:42;;;;;;;;;28.33;26.33;;;;;;;;5041522;28;11589;-82
2021/01/08 02:45:10;;;;;;;;;26.00;26.00;;;;;;;;5038957;28;11547;-89
2021/01/08 02:47:37;;;;;;;;;34.00;28.00;;;;;;;;5036321;28;11575;-89
2021/01/08 02:50:04;;;;;;;;;26.00;23.67;;;;;;;;5032759;28;12407;-81
2021/01/08 02:52:32;;;;;;;;;30.67;27.67;;;;;;;;5034945;28;8891;-81
2021/01/08 02:55:01;;;;;;;;;30.33;25.67;;;;;;;;5041245;28;11610;-77
2021/01/08 02:57:29;;;;;;;;;31.67;28.00;;;;;;;;5040138;28;8887;-79
2021/01/08 02:59:57;;;;;;;;;26.33;26.33;;;;;;;;5034168;28;8910;-83
2021/01/08 03:02:24;;;;;;;;;27.33;27.33;;;;;;;;5039519;28;8898;-80
2021/01/08 03:04:51;;;;;;;;;29.67;29.67;;;;;;;;5034086;28;8871;-80
2021/01/08 03:07:20;;;;;;;;;32.33;32.33;;;;;;;;5045367;28;8905;-80
2021/01/08 03:09:47;;;;;;;;;25.67;25.67;;;;;;;;5035632;28;8855;-80
2021/01/08 03:12:15;;;;;;;;;31.33;29.33;;;;;;;;5030731;28;8887;-79
2021/01/08 03:14:44;;;;;;;;;28.00;28.00;;;;;;;;5044306;28;8854;-79
2021/01/08 03:17:10;;;;;;;;;29.33;27.00;;;;;;;;5016085;28;8888;-86
2021/01/08 03:19:37;;;;;;;;;34.00;25.00;;;;;;;;5043426;28;9585;-85
2021/01/08 03:22:04;;;;;;;;;31.00;27.00;;;;;;;;5036224;28;8928;-83
2021/01/08 03:24:32;;;;;;;;;44.33;35.67;;;;;;;;5042557;28;8889;-81
2021/01/08 03:26:59;;;;;;;;;42.00;33.67;;;;;;;;5035768;28;8863;-80
2021/01/08 03:29:26;;;;;;;;;34.00;28.67;;;;;;;;5034433;28;8877;-84
2021/01/08 03:31:53;;;;;;;;;37.33;28.33;;;;;;;;5042037;28;11524;-86
2021/01/08 03:34:20;;;;;;;;;36.00;31.67;;;;;;;;5037156;28;11601;-87
2021/01/08 03:36:47;;;;;;;;;26.33;25.00;;;;;;;;5037508;28;11562;-83
2021/01/08 03:39:13;;;;;;;;;26.67;22.00;;;;;;;;5034342;28;8853;-85
2021/01/08 03:41:40;;;;;;;;;30.33;25.33;;;;;;;;5032141;28;11596;-85
2021/01/08 03:44:07;;;;;;;;;35.67;29.67;;;;;;;;5042470;28;11572;-80
2021/01/08 03:46:36;;;;;;;;;31.00;30.33;;;;;;;;5039989;28;11692;-83
2021/01/08 03:49:05;;;;;;;;;4.33;4.33;;;;;;;;5044091;28;8932;-83
2021/01/08 03:51:31;;;;;;;;;44.33;34.00;;;;;;;;5041516;28;11530;-81
2021/01/08 03:53:58;;;;;;;;;31.67;28.00;;;;;;;;5030070;28;9653;-83
2021/01/08 03:56:25;;;;;;;;;27.67;27.67;;;;;;;;5039802;28;11589;-81
2021/01/08 03:58:52;;;;;;;;;18.67;17.33;;;;;;;;5031234;28;11567;-80
2021/01/08 04:01:19;;;;;;;;;29.00;27.67;;;;;;;;5031659;28;12224;-80
2021/01/08 04:03:46;;;;;;;;;31.33;29.00;;;;;;;;5047197;28;11528;-82
2021/01/08 04:06:13;;;;;;;;;27.33;25.67;;;;;;;;5028885;28;11674;-77
2021/01/08 04:08:40;;;;;;;;;28.33;24.00;;;;;;;;5040882;28;11593;-83
2021/01/08 04:11:07;;;;;;;;;31.33;31.33;;;;;;;;5029337;28;11564;-85
2021/01/08 04:13:33;;;;;;;;;37.67;33.33;;;;;;;;5035448;28;11592;-77
2021/01/08 04:16:00;;;;;;;;;27.67;25.67;;;;;;;;5035336;28;11590;-78
2021/01/08 04:18:27;;;;;;;;;30.33;30.33;;;;;;;;5028204;28;11593;-82
2021/01/08 04:20:54;;;;;;;;;40.33;30.00;;;;;;;;5040857;28;11566;-80
2021/01/08 04:23:22;;;;;;;;;23.00;16.33;;;;;;;;5036839;28;11603;-80
2021/01/08 04:25:49;;;;;;;;;33.00;30.00;;;;;;;;5041450;28;11591;-76
2021/01/08 04:28:16;;;;;;;;;25.33;25.33;;;;;;;;5031852;28;11545;-84
2021/01/08 04:30:43;;;;;;;;;24.33;23.00;;;;;;;;5033162;28;11535;-81
2021/01/08 04:33:10;;;;;;;;;25.00;20.00;;;;;;;;5037754;28;11572;-80
2021/01/08 04:35:37;;;;;;;;;26.33;26.33;;;;;;;;5032605;28;11590;-79
2021/01/08 04:38:04;;;;;;;;;25.00;25.00;;;;;;;;5042444;28;11569;-77
2021/01/08 04:40:32;;;;;;;;;33.33;21.67;;;;;;;;5037648;28;11560;-79
2021/01/08 04:42:59;;;;;;;;;25.33;22.00;;;;;;;;5035626;28;11588;-85
2021/01/08 04:45:26;;;;;;;;;27.00;27.00;;;;;;;;5037588;28;11580;-78
2021/01/08 04:47:54;;;;;;;;;21.67;20.00;;;;;;;;5034760;28;11605;-79
2021/01/08 04:50:21;;;;;;;;;28.00;26.00;;;;;;;;5031433;28;11600;-81
2021/01/08 04:52:48;;;;;;;;;23.67;22.67;;;;;;;;5034301;28;11586;-81
2021/01/08 04:55:16;;;;;;;;;22.33;20.00;;;;;;;;5049213;28;11587;-83
2021/01/08 04:57:47;;;;;;;;;25.67;21.67;;;;;;;;5044746;28;11573;-91
2021/01/08 05:00:15;;;;;;;;;25.00;22.00;;;;;;;;5030674;28;11611;-80
2021/01/08 05:02:42;;;;;;;;;26.67;24.33;;;;;;;;5033897;28;11711;-80
2021/01/08 05:05:10;;;;;;;;;32.67;25.00;;;;;;;;5046849;28;11563;-82
2021/01/08 05:07:37;;;;;;;;;21.33;21.33;;;;;;;;5044687;28;11576;-85
2021/01/08 05:10:05;;;;;;;;;27.00;21.00;;;;;;;;5035228;28;12304;-82
2021/01/08 05:12:39;;;;;;;;;27.00;24.67;;;;;;;;5037537;28;11581;-78
2021/01/08 05:15:13;;;;;;;;;23.00;21.00;;;;;;;;5029665;28;11597;-78
2021/01/08 05:17:40;;;;;;;;;28.00;25.00;;;;;;;;5040303;28;11560;-81
2021/01/08 05:20:08;;;;;;;;;25.00;24.00;;;;;;;;5034327;28;11570;-77
2021/01/08 05:22:35;;;;;;;;;25.33;25.33;;;;;;;;5038728;28;11623;-78
2021/01/08 05:25:05;;;;;;;;;28.00;28.00;;;;;;;;5037617;28;8861;-77
2021/01/08 05:27:32;;;;;;;;;21.67;21.67;;;;;;;;5041171;28;11601;-79
2021/01/08 05:30:14;;;;;;;;;33.00;31.67;;;;;;;;5038370;28;11565;-78
2021/01/08 05:32:42;;;;;;;;;15.00;15.00;;;;;;;;5034155;28;8828;-77
2021/01/08 05:35:12;;;;;;;;;33.00;33.00;;;;;;;;5039445;28;8869;-91
2021/01/08 05:37:42;;;;;;;;;30.00;30.00;;;;;;;;5041367;28;8887;-90
2021/01/08 05:40:10;;;;;;;;;30.67;29.33;;;;;;;;5045320;28;8881;-92
2021/01/08 05:42:49;;;;;;;;;27.67;27.67;;;;;;;;5036137;28;8970;-90
2021/01/08 05:45:17;;;;;;;;;30.00;27.00;;;;;;;;5040339;28;8878;-89
2021/01/08 05:47:44;;;;;;;;;40.67;37.67;;;;;;;;5036378;28;8837;-85
2021/01/08 05:50:12;;;;;;;;;28.67;27.33;;;;;;;;5033679;28;8890;-90
2021/01/08 05:52:43;;;;;;;;;30.33;30.33;;;;;;;;5033523;28;8959;-90
2021/01/08 05:55:14;;;;;;;;;17.33;17.33;;;;;;;;5036867;28;8965;-91
2021/01/08 05:57:42;;;;;;;;;24.00;22.00;;;;;;;;5033693;28;8882;-90
2021/01/08 06:00:10;;;;;;;;;27.00;27.00;;;;;;;;5036227;28;8883;-92
2021/01/08 06:02:39;;;;;;;;;27.67;26.67;;;;;;;;5035542;28;8908;-92
2021/01/08 06:05:07;;;;;;;;;25.67;25.67;;;;;;;;5042774;28;8863;-92
2021/01/08 06:07:37;;;;;;;;;31.33;30.33;;;;;;;;5036150;28;8901;-78
2021/01/08 06:10:07;;;;;;;;;28.67;28.67;;;;;;;;5030821;28;8898;-90
2021/01/08 06:12:38;;;;;;;;;28.33;28.33;;;;;;;;5032484;28;8944;-85
2021/01/08 06:15:07;;;;;;;;;24.67;24.33;;;;;;;;5039583;28;8893;-76
2021/01/08 06:17:35;;;;;;;;;25.00;25.00;;;;;;;;5041220;28;8900;-79
2021/01/08 06:20:05;;;;;;;;;32.67;30.67;;;;;;;;5035388;28;8898;-84
2021/01/08 06:22:39;;;;;;;;;32.33;30.67;;;;;;;;5039728;28;8922;-76
2021/01/08 06:25:07;;;;;;;;;29.33;27.67;;;;;;;;5036244;28;8913;-76
2021/01/08 06:27:36;;;;;;;;;28.67;28.67;;;;;;;;5033313;28;9718;-74
2021/01/08 06:30:05;;;;;;;;;38.33;34.00;;;;;;;;5033526;28;8874;-79
2021/01/08 06:32:33;;;;;;;;;29.67;29.67;;;;;;;;5039126;28;9711;-81
2021/01/08 06:35:05;;;;;;;;;22.67;22.67;;;;;;;;5039447;28;8849;-79
2021/01/08 06:37:40;;;;;;;;;28.00;28.00;;;;;;;;5037863;28;8948;-80
2021/01/08 06:40:09;;;;;;;;;19.67;19.67;;;;;;;;5039216;28;8847;-81
2021/01/08 06:42:44;;;;;;;;;34.67;32.33;;;;;;;;5035993;28;11758;-81
2021/01/08 06:45:14;;;;;;;;;29.33;22.67;;;;;;;;5036430;28;8884;-81
2021/01/08 06:47:46;;;;;;;;;33.00;28.00;;;;;;;;5037230;28;8850;-81
2021/01/08 06:50:19;;;;;;;;;28.33;25.33;;;;;;;;5040336;28;11565;-81
2021/01/08 06:52:47;;;;;;;;;43.00;34.33;;;;;;;;5038396;28;11595;-81
2021/01/08 06:55:16;;;;;;;;;36.00;32.67;;;;;;;;5041444;28;9005;-82
2021/01/08 06:57:52;;;;;;;;;43.67;39.00;;;;;;;;5028391;28;8936;-81
2021/01/08 07:00:22;;;;;;;;;39.33;33.67;;;;;;;;5035092;28;8877;-79
2021/01/08 07:02:55;;;;;;;;;52.67;38.67;;;;;;;;5042432;28;9737;-72
2021/01/08 07:05:23;;;;;;;;;50.67;46.67;;;;;;;;5028391;28;8923;-74
2021/01/08 07:07:50;;;;;;;;;52.33;48.33;;;;;;;;5039417;28;8860;-74
2021/01/08 07:10:18;;;;;;;;;56.33;51.00;;;;;;;;5035706;28;8871;-73
2021/01/08 07:12:45;;;;;;;;;42.67;42.67;;;;;;;;5038678;28;8900;-73
2021/01/08 07:15:13;;;;;;;;;21.67;20.33;;;;;;;;5035686;28;8863;-73
2021/01/08 07:17:40;;;;;;;;;30.67;30.67;;;;;;;;5038803;28;8881;-73
2021/01/08 07:20:09;;;;;;;;;22.00;22.00;;;;;;;;5036663;28;8877;-73
2021/01/08 07:22:39;;;;;;;;;35.33;35.33;;;;;;;;5044376;28;8889;-74
2021/01/08 07:25:07;;;;;;;;;30.00;30.00;;;;;;;;5044584;28;9019;-72
2021/01/08 07:27:35;;;;;;;;;32.67;31.33;;;;;;;;5044937;28;10236;-73
2021/01/08 07:30:03;;;;;;;;;30.33;30.33;;;;;;;;5043450;28;9644;-73
2021/01/08 07:32:37;;;;;;;;;31.33;28.33;;;;;;;;5044707;28;8866;-73
2021/01/08 07:35:22;;;;;;;;;34.33;33.67;;;;;;;;5042272;28;8906;-73
2021/01/08 07:38:02;;;;;;;;;28.33;28.33;;;;;;;;5045709;28;8964;-74
2021/01/08 07:40:33;;;;;;;;;25.67;25.67;;;;;;;;5041007;28;8857;-73
2021/01/08 07:43:01;;;;;;;;;32.00;32.00;;;;;;;;5037040;28;8886;-73
2021/01/08 07:45:48;;;;;;;;;33.67;31.67;;;;;;;;5045207;28;8866;-73
2021/01/08 07:48:24;;;;;;;;;40.33;35.00;;;;;;;;5044563;28;8862;-73
2021/01/08 07:50:52;;;;;;;;;32.67;31.33;;;;;;;;5045640;28;8982;-73
2021/01/08 07:53:54;;;;;;;;;33.67;32.33;;;;;;;;5041249;28;8851;-71
2021/01/08 07:56:23;;;;;;;;;27.67;27.67;;;;;;;;5028307;28;8874;-73
2021/01/08 07:59:00;;;;;;;;;38.33;38.33;;;;;;;;5041704;28;8871;-73
2021/01/08 08:01:27;;;;;;;;;28.00;28.00;;;;;;;;5038462;28;8888;-73
2021/01/08 08:03:58;;;;;;;;;31.00;30.67;;;;;;;;5045220;28;8878;-73
2021/01/08 08:06:27;;;;;;;;;31.00;31.00;;;;;;;;5036943;28;8873;-74
2021/01/08 08:08:58;;;;;;;;;35.67;35.67;;;;;;;;5038772;28;8894;-73
2021/01/08 08:11:29;;;;;;;;;32.33;32.33;;;;;;;;5035248;28;8879;-74
2021/01/08 08:13:56;;;;;;;;;35.67;34.67;;;;;;;;5036334;28;8843;-73
2021/01/08 08:16:31;;;;;;;;;38.33;38.33;;;;;;;;5031941;28;9104;-73
2021/01/08 08:18:58;;;;;;;;;27.00;26.33;;;;;;;;5035548;28;8923;-74
2021/01/08 08:21:25;;;;;;;;;33.67;33.00;;;;;;;;5034851;28;8882;-73
2021/01/08 08:23:53;;;;;;;;;36.67;36.67;;;;;;;;5038328;28;8859;-73
2021/01/08 08:26:20;;;;;;;;;40.00;40.00;;;;;;;;5038395;28;8889;-74
2021/01/08 08:28:59;;;;;;;;;37.33;37.33;;;;;;;;5032597;28;8850;-74
2021/01/08 08:31:28;;;;;;;;;24.67;24.67;;;;;;;;5029279;28;9610;-74
2021/01/08 08:33:55;;;;;;;;;35.00;33.67;;;;;;;;5038712;28;9444;-72
2021/01/08 08:36:25;;;;;;;;;36.33;36.33;;;;;;;;5046605;28;9544;-73
2021/01/08 08:39:06;;;;;;;;;37.67;37.67;;;;;;;;5033654;28;8867;-73
2021/01/08 08:41:35;;;;;;;;;38.33;37.00;;;;;;;;5039519;28;8838;-73
2021/01/08 08:44:08;;;;;;;;;32.33;32.33;;;;;;;;5042941;28;9009;-72
2021/01/08 08:46:49;;;;;;;;;33.67;33.67;;;;;;;;5043997;28;8889;-73
2021/01/08 08:49:17;;;;;;;;;43.00;42.00;;;;;;;;5037331;28;8879;-74
2021/01/08 08:51:46;;;;;;;;;47.33;45.33;;;;;;;;5044723;28;8928;-74
2021/01/08 08:54:13;;;;;;;;;45.67;37.00;;;;;;;;5041559;28;8916;-74
2021/01/08 08:56:41;;;;;;;;;54.67;49.00;;;;;;;;5038444;28;8863;-73
2021/01/08 08:59:09;;;;;;;;;21.33;18.33;;;;;;;;5042226;28;8889;-73
2021/01/08 09:01:40;;;;;;;;;48.33;40.33;;;;;;;;5032176;28;8795;-73
2021/01/08 09:04:08;;;;;;;;;72.67;55.67;;;;;;;;5037630;28;8938;-74
2021/01/08 09:06:37;;;;;;;;;86.00;68.00;;;;;;;;5032837;28;8862;-73
2021/01/08 09:09:18;;;;;;;;;84.00;67.67;;;;;;;;5044541;28;8889;-73
2021/01/08 09:11:54;;;;;;;;;57.00;49.00;;;;;;;;5043193;28;8921;-74
2021/01/08 09:14:22;;;;;;;;;57.00;49.33;;;;;;;;5040182;28;9621;-74
2021/01/08 09:16:52;;;;;;;;;70.33;59.00;;;;;;;;5039971;28;8886;-72
2021/01/08 09:19:24;;;;;;;;;48.00;45.00;;;;;;;;5030048;28;8867;-74
2021/01/08 09:21:52;;;;;;;;;52.33;44.67;;;;;;;;5042491;28;8878;-73
2021/01/08 09:24:23;;;;;;;;;48.00;45.33;;;;;;;;5030660;28;8881;-74
2021/01/08 09:26:52;;;;;;;;;46.33;43.33;;;;;;;;5034646;28;8889;-74
2021/01/08 09:29:29;;;;;;;;;40.67;40.00;;;;;;;;5034975;28;9604;-73
2021/01/08 09:31:56;;;;;;;;;55.67;42.67;;;;;;;;5035368;28;11531;-73
2021/01/08 09:34:24;;;;;;;;;48.67;41.00;;;;;;;;5034209;28;11589;-74
2021/01/08 09:36:52;;;;;;;;;44.00;40.33;;;;;;;;5040168;28;11597;-75
2021/01/08 09:39:21;;;;;;;;;38.00;36.67;;;;;;;;5043950;28;11580;-74
2021/01/08 09:41:55;;;;;;;;;37.00;37.00;;;;;;;;5041594;28;11545;-75
2021/01/08 09:44:31;;;;;;;;;40.67;32.00;;;;;;;;5039316;28;11586;-75
2021/01/08 09:46:59;;;;;;;;;42.00;42.00;;;;;;;;5034243;28;11640;-75
2021/01/08 09:49:28;;;;;;;;;35.67;35.67;;;;;;;;5030601;28;8880;-72
2021/01/08 09:52:01;;;;;;;;;39.67;36.67;;;;;;;;5033103;28;12412;-72
2021/01/08 09:54:44;;;;;;;;;42.00;38.75;;;;;;;;5033935;28;12361;-74
2021/01/08 09:57:25;;;;;;;;;30.75;28.25;;;;;;;;5039612;28;11579;-74
2021/01/08 09:59:58;;;;;;;;;36.25;30.25;;;;;;;;5041593;28;11548;-74
2021/01/08 10:02:36;;;;;;;;;42.50;36.75;;;;;;;;5040546;28;12333;-73
2021/01/08 10:05:04;;;;;;;;;39.75;37.75;;;;;;;;5036462;28;11733;-73
2021/01/08 10:07:41;;;;;;;;;39.75;35.75;;;;;;;;5038912;28;11610;-74
2021/01/08 10:10:10;;;;;;;;;33.75;32.50;;;;;;;;5037651;28;11603;-73
2021/01/08 10:12:48;;;;;;;;;39.50;39.50;;;;;;;;5036713;28;11556;-74
2021/01/08 10:15:17;;;;;;;;;42.25;38.50;;;;;;;;5039378;28;11609;-73
2021/01/08 10:17:50;;;;;;;;;42.75;37.50;;;;;;;;5040777;28;11590;-73
2021/01/08 10:20:20;;;;;;;;;40.00;32.50;;;;;;;;5031469;28;11643;-73
2021/01/08 10:22:48;;;;;;;;;37.25;36.75;;;;;;;;5040185;28;11593;-72
2021/01/08 10:25:25;;;;;;;;;38.50;36.75;;;;;;;;5037796;28;11603;-71
2021/01/08 10:27:52;;;;;;;;;46.00;40.50;;;;;;;;5039948;28;11609;-74
2021/01/08 10:30:21;;;;;;;;;42.75;36.25;;;;;;;;5041092;28;11556;-74
2021/01/08 10:32:49;;;;;;;;;44.50;37.00;;;;;;;;5044859;28;11636;-73
2021/01/08 10:35:18;;;;;;;;;44.33;41.67;;;;;;;;5045584;28;11576;-72
2021/01/08 10:37:44;;;;;;;;;40.50;40.00;;;;;;;;5031491;28;11592;-73
2021/01/08 10:40:12;;;;;;;;;45.00;42.00;;;;;;;;5029638;28;11683;-75
2021/01/08 10:42:39;;;;;;;;;36.75;33.50;;;;;;;;5038401;28;12380;-73
2021/01/08 10:45:07;;;;;;;;;50.25;43.00;;;;;;;;5039093;28;11580;-72
2021/01/08 10:47:35;;;;;;;;;52.67;47.00;;;;;;;;5044033;28;11581;-73
2021/01/08 10:50:02;;;;;;;;;39.00;36.25;;;;;;;;5038957;28;11588;-72
2021/01/08 10:52:29;;;;;;;;;35.50;35.50;;;;;;;;5035736;28;11606;-75
2021/01/08 10:54:56;;;;;;;;;45.00;39.50;;;;;;;;5032445;28;11608;-74
2021/01/08 10:57:23;;;;;;;;;39.50;34.25;;;;;;;;5043400;28;11634;-73
2021/01/08 10:59:50;;;;;;;;;48.00;41.25;;;;;;;;5034037;28;11580;-74
2021/01/08 11:02:16;;;;;;;;;54.50;46.00;;;;;;;;5045310;28;11576;-74
2021/01/08 11:04:44;;;;;;;;;44.50;41.50;;;;;;;;5042088;28;11604;-74
2021/01/08 11:07:12;;;;;;;;;42.00;40.00;;;;;;;;5038678;28;12131;-74
2021/01/08 11:09:38;;;;;;;;;29.25;24.50;;;;;;;;5041345;28;12389;-74
2021/01/08 11:12:07;;;;;;;;;49.00;41.00;;;;;;;;5039017;28;11613;-74
2021/01/08 11:14:33;;;;;;;;;47.00;45.00;;;;;;;;5039441;28;11585;-73
2021/01/08 11:17:00;;;;;;;;;38.00;35.50;;;;;;;;5045271;28;11593;-74
2021/01/08 11:19:27;;;;;;;;;40.25;38.75;;;;;;;;5035442;28;11594;-73
2021/01/08 11:21:55;;;;;;;;;46.75;43.75;;;;;;;;5034471;28;12472;-73
2021/01/08 11:24:22;;;;;;;;;53.25;48.50;;;;;;;;5035373;28;12422;-75
2021/01/08 11:26:49;;;;;;;;;50.50;43.00;;;;;;;;5037651;28;11595;-74
2021/01/08 11:29:16;;;;;;;;;47.50;43.25;;;;;;;;5036011;28;11620;-73
2021/01/08 11:31:43;;;;;;;;;55.75;45.50;;;;;;;;5028877;28;11704;-73
2021/01/08 11:34:11;;;;;;;;;60.33;47.00;;;;;;;;5035935;28;11631;-75
2021/01/08 11:36:39;;;;;;;;;40.00;36.33;;;;;;;;5035761;28;12384;-72
2021/01/08 11:39:07;;;;;;;;;61.00;50.33;;;;;;;;5031856;28;11563;-73
2021/01/08 11:41:34;;;;;;;;;61.67;49.67;;;;;;;;5032002;28;11609;-73
2021/01/08 11:44:01;;;;;;;;;63.33;49.67;;;;;;;;5040690;28;8867;-73
2021/01/08 11:46:28;;;;;;;;;47.33;43.00;;;;;;;;5030899;28;8866;-72
2021/01/08 11:48:54;;;;;;;;;55.67;45.67;;;;;;;;5040057;28;11606;-74
2021/01/08 11:51:22;;;;;;;;;62.00;49.00;;;;;;;;5036672;28;11588;-73
2021/01/08 11:53:49;;;;;;;;;57.33;49.33;;;;;;;;5037020;28;11587;-73
2021/01/08 11:56:17;;;;;;;;;56.33;50.00;;;;;;;;5044032;28;8874;-73
2021/01/08 11:58:45;;;;;;;;;58.33;48.00;;;;;;;;5033114;28;11614;-72
2021/01/08 12:01:12;;;;;;;;;57.67;46.00;;;;;;;;5027379;28;11627;-72
2021/01/08 12:03:40;;;;;;;;;55.00;46.33;;;;;;;;5031523;28;11611;-72
2021/01/08 12:06:07;;;;;;;;;54.67;45.33;;;;;;;;5035951;28;11593;-72
2021/01/08 12:08:36;;;;;;;;;44.75;41.75;;;;;;;;5038850;28;11583;-72
2021/01/08 12:11:03;;;;;;;;;47.25;43.00;;;;;;;;5037109;28;12254;-72
2021/01/08 12:13:31;;;;;;;;;66.00;51.33;;;;;;;;5031596;28;12398;-72
2021/01/08 12:15:58;;;;;;;;;71.00;60.33;;;;;;;;5039005;28;8897;-73
2021/01/08 12:18:24;;;;;;;;;51.00;43.67;;;;;;;;5033375;28;8859;-74
2021/01/08 12:20:51;;;;;;;;;52.33;45.33;;;;;;;;5049087;28;11615;-73
2021/01/08 12:23:18;;;;;;;;;59.00;49.00;;;;;;;;5040866;28;11583;-74
2021/01/08 12:25:45;;;;;;;;;64.33;52.33;;;;;;;;5039505;28;11598;-74
2021/01/08 12:28:13;;;;;;;;;59.00;51.33;;;;;;;;5030913;28;11632;-74
2021/01/08 12:30:41;;;;;;;;;65.00;49.00;;;;;;;;5035146;28;11513;-74
2021/01/08 12:33:07;;;;;;;;;61.75;50.00;;;;;;;;5033820;28;11663;-77
2021/01/08 12:35:34;;;;;;;;;61.67;52.00;;;;;;;;5028640;28;11692;-75
2021/01/08 12:38:01;;;;;;;;;50.75;45.25;;;;;;;;5018550;28;12425;-73
2021/01/08 12:40:28;;;;;;;;;52.00;46.25;;;;;;;;5036768;28;11595;-73
2021/01/08 12:42:55;;;;;;;;;48.00;45.00;;;;;;;;5041000;28;11636;-73
2021/01/08 12:45:22;;;;;;;;;56.25;49.00;;;;;;;;5034804;28;11604;-74
2021/01/08 12:47:50;;;;;;;;;64.00;45.50;;;;;;;;5040970;28;11597;-73
2021/01/08 12:50:20;;;;;;;;;55.00;45.75;;;;;;;;5039531;28;11569;-74
2021/01/08 12:52:47;;;;;;;;;44.00;42.00;;;;;;;;5038257;28;11594;-74
2021/01/08 12:55:14;;;;;;;;;41.75;40.50;;;;;;;;5035265;28;11591;-74
2021/01/08 12:57:41;;;;;;;;;42.25;39.50;;;;;;;;5043525;28;11574;-74
2021/01/08 13:00:10;;;;;;;;;51.00;43.50;;;;;;;;5025227;28;11718;-73
2021/01/08 13:02:37;;;;;;;;;46.00;41.75;;;;;;;;5045505;28;11558;-71
2021/01/08 13:05:06;;;;;;;;;46.25;44.50;;;;;;;;5021080;28;11799;-72
2021/01/08 13:07:33;;;;;;;;;42.75;42.00;;;;;;;;5041461;28;11589;-71
2021/01/08 13:10:00;;;;;;;;;51.25;46.25;;;;;;;;5035567;28;11575;-72
2021/01/08 13:12:26;;;;;;;;;54.00;45.50;;;;;;;;5039593;28;11691;-72
2021/01/08 13:14:53;;;;;;;;;44.50;42.25;;;;;;;;5032254;28;11563;-73
2021/01/08 13:17:20;;;;;;;;;46.50;43.50;;;;;;;;5042153;28;11585;-72
2021/01/08 13:19:47;;;;;;;;;49.25;43.00;;;;;;;;5036819;28;12302;-72
2021/01/08 13:22:15;;;;;;;;;44.75;43.00;;;;;;;;5035655;28;12861;-72
2021/01/08 13:24:42;;;;;;;;;42.25;33.50;;;;;;;;5037164;28;11573;-73
2021/01/08 13:27:08;;;;;;;;;50.50;42.00;;;;;;;;5033476;28;11595;-72
2021/01/08 13:29:35;;;;;;;;;41.25;40.75;;;;;;;;5038284;28;11616;-72
2021/01/08 13:32:05;;;;;;;;;41.00;36.00;;;;;;;;5030932;28;11546;-72
2021/01/08 13:34:33;;;;;;;;;42.25;37.00;;;;;;;;5035565;28;11617;-71
2021/01/08 13:37:00;;;;;;;;;40.75;34.50;;;;;;;;5034845;28;11560;-72
2021/01/08 13:39:28;;;;;;;;;31.25;29.75;;;;;;;;5036667;28;11569;-74
2021/01/08 13:42:01;;;;;;;;;33.00;30.25;;;;;;;;5037336;28;11573;-73
2021/01/08 13:44:28;;;;;;;;;27.00;24.00;;;;;;;;5037732;28;11584;-75
2021/01/08 13:46:55;;;;;;;;;35.25;32.00;;;;;;;;5038258;28;11571;-74
2021/01/08 13:49:23;;;;;;;;;29.50;25.25;;;;;;;;5029980;28;11573;-73
2021/01/08 13:51:49;;;;;;;;;30.75;26.50;;;;;;;;5040678;28;11553;-75
2021/01/08 13:54:16;;;;;;;;;36.50;31.50;;;;;;;;5039855;28;11588;-75
2021/01/08 13:56:47;;;;;;;;;36.75;31.75;;;;;;;;5039587;28;11568;-75
2021/01/08 13:59:13;;;;;;;;;29.00;29.00;;;;;;;;5040915;28;11601;-75
2021/01/08 14:01:40;;;;;;;;;35.00;33.25;;;;;;;;5039699;28;11517;-75
2021/01/08 14:04:07;;;;;;;;;43.50;40.75;;;;;;;;5040384;28;11690;-74
2021/01/08 14:06:34;;;;;;;;;44.50;39.75;;;;;;;;5005298;28;11580;-75
2021/01/08 14:09:02;;;;;;;;;51.00;44.50;;;;;;;;5038235;28;12348;-74
2021/01/08 14:11:31;;;;;;;;;50.00;41.25;;;;;;;;5042692;28;11555;-75
2021/01/08 14:14:00;;;;;;;;;46.75;41.00;;;;;;;;5039690;28;11562;-74
2021/01/08 14:16:28;;;;;;;;;43.25;38.25;;;;;;;;5041029;28;12358;-74
2021/01/08 14:18:56;;;;;;;;;33.25;33.25;;;;;;;;5039971;28;11659;-73
2021/01/08 14:21:30;;;;;;;;;38.00;34.00;;;;;;;;5041400;28;11570;-74
2021/01/08 14:23:58;;;;;;;;;41.25;40.00;;;;;;;;5039767;28;11532;-74
2021/01/08 14:26:26;;;;;;;;;44.50;37.50;;;;;;;;5041118;28;11591;-74
2021/01/08 14:28:53;;;;;;;;;32.00;26.75;;;;;;;;5042916;28;11568;-74
2021/01/08 14:31:28;;;;;;;;;38.25;35.50;;;;;;;;5040807;28;11578;-74
2021/01/08 14:33:55;;;;;;;;;40.25;35.75;;;;;;;;5041867;28;11578;-74